Time;durP1;ratioP1;P1;durP2;ratioP2;P2;SDS_P1;SDS_P2;PMS_P1;PMS_P2;Temp;Humidity;BMP_temperature;BMP_pressure;BME280_temperature;BME280_humidity;BME280_pressure;Samples;Min_cycle;Max_cycle;Signal;HPM_P1;HPM_P2
2021/05/30 00:01:11;;;;;;;3.8;0.7;;;;;;;10.47;78.32422;944.319;;;;
2021/05/30 00:03:40;;;;;;;2.2;0.6;;;;;;;10.33;79.21094;944.3008;;;;
2021/05/30 00:06:05;;;;;;;2.7;0.8;;;;;;;10.31;79.05957;944.3226;;;;
2021/05/30 00:08:32;;;;;;;0.6;0.4;;;;;;;10.19;79.58594;944.3251;;;;
2021/05/30 00:10:57;;;;;;;1.1;0.7;;;;;;;10.28;79.19141;944.3198;;;;
2021/05/30 00:13:23;;;;;;;0.7;0.5;;;;;;;10.22;79.58105;944.3345;;;;
2021/05/30 00:15:48;;;;;;;1.1;0.8;;;;;;;10.16;79.41895;944.3508;;;;
2021/05/30 00:18:14;;;;;;;1.5;0.9;;;;;;;10.21;79.37207;944.3306;;;;
2021/05/30 00:20:39;;;;;;;0.8;0.7;;;;;;;10.23;79.18164;944.2957;;;;
2021/05/30 00:23:05;;;;;;;0.9;0.7;;;;;;;10.32;79.12988;944.3269;;;;
2021/05/30 00:25:30;;;;;;;1.1;0.6;;;;;;;10.38;78.96973;944.3432;;;;
2021/05/30 00:27:57;;;;;;;1.3;0.8;;;;;;;10.44;78.75195;944.2539;;;;
2021/05/30 00:30:22;;;;;;;0.8;0.5;;;;;;;10.4;79.17871;944.3315;;;;
2021/05/30 00:32:48;;;;;;;0.4;0.4;;;;;;;10.38;78.99316;944.293;;;;
2021/05/30 00:35:13;;;;;;;0.8;0.5;;;;;;;10.14;77.91016;944.2296;;;;
2021/05/30 00:37:40;;;;;;;1;0.6;;;;;;;9.96;78.33496;944.2715;;;;
2021/05/30 00:40:05;;;;;;;0.6;0.4;;;;;;;9.95;78.59473;944.2707;;;;
2021/05/30 00:42:30;;;;;;;1.7;0.4;;;;;;;10;78.52441;944.2391;;;;
2021/05/30 00:44:55;;;;;;;1.3;0.9;;;;;;;9.99;78.62402;944.2498;;;;
2021/05/30 00:47:20;;;;;;;0.8;0.6;;;;;;;9.95;78.95898;944.2508;;;;
2021/05/30 00:49:47;;;;;;;1.3;0.9;;;;;;;9.9;79.41797;944.2935;;;;
2021/05/30 00:52:12;;;;;;;0.6;0.6;;;;;;;9.66;80.40039;944.2952;;;;
2021/05/30 00:54:39;;;;;;;0.4;0.4;;;;;;;9.62;80.57422;944.2623;;;;
2021/05/30 00:57:04;;;;;;;0.6;0.6;;;;;;;9.72;79.84082;944.267;;;;
2021/05/30 00:59:29;;;;;;;0.9;0.8;;;;;;;9.75;78.79785;944.2198;;;;
2021/05/30 01:01:54;;;;;;;4.8;1.2;;;;;;;9.73;78.57813;944.2887;;;;
2021/05/30 01:05:03;;;;;;;1.6;1.4;;;;;;;9.74;78.48828;944.308;;;;
2021/05/30 01:07:28;;;;;;;1.9;1.5;;;;;;;9.57;78.76465;944.3078;;;;
2021/05/30 01:09:53;;;;;;;2.5;1;;;;;;;9.47;79.41797;944.2619;;;;
2021/05/30 01:12:18;;;;;;;2.9;1.7;;;;;;;9.51;79.49512;944.3199;;;;
2021/05/30 01:14:45;;;;;;;2;1.4;;;;;;;9.52;79.37012;944.2922;;;;
2021/05/30 01:17:10;;;;;;;1.3;0.7;;;;;;;9.47;79.47363;944.2767;;;;
2021/05/30 01:19:39;;;;;;;2.5;0.6;;;;;;;9.33;79.96289;944.3322;;;;
2021/05/30 01:22:04;;;;;;;0.8;0.6;;;;;;;9.34;80.00879;944.3187;;;;
2021/05/30 01:24:29;;;;;;;1.8;0.9;;;;;;;9.12;80.32129;944.3608;;;;
2021/05/30 01:26:54;;;;;;;1.6;0.8;;;;;;;9.23;80.19531;944.3234;;;;
2021/05/30 01:29:20;;;;;;;0.8;0.8;;;;;;;9.11;80.43262;944.3036;;;;
2021/05/30 01:31:45;;;;;;;1;0.8;;;;;;;9.1;80.33984;944.3524;;;;
2021/05/30 01:34:10;;;;;;;2.5;0.7;;;;;;;9.12;80.10449;944.3491;;;;
2021/05/30 01:36:35;;;;;;;2;0.6;;;;;;;9.14;80.50684;944.4052;;;;
2021/05/30 01:39:00;;;;;;;0.4;0.4;;;;;;;9.24;79.93262;944.3331;;;;
2021/05/30 01:41:25;;;;;;;1.9;0.8;;;;;;;9.23;79.64648;944.3503;;;;
2021/05/30 01:43:51;;;;;;;0.6;0.4;;;;;;;9.28;79.55566;944.3994;;;;
2021/05/30 01:46:16;;;;;;;0.4;0.4;;;;;;;9.34;79.12207;944.4348;;;;
2021/05/30 01:48:41;;;;;;;0.5;0.5;;;;;;;9.38;78.87793;944.423;;;;
2021/05/30 01:51:06;;;;;;;1.1;0.6;;;;;;;9.31;78.74121;944.3921;;;;
2021/05/30 01:53:36;;;;;;;0.5;0.5;;;;;;;9.2;78.99316;944.3652;;;;
2021/05/30 01:56:56;;;;;;;0.7;0.6;;;;;;;9.14;79.26563;944.3725;;;;
2021/05/30 01:58:22;;;;;;;0.5;0.4;;;;;;;9.12;79.26465;944.3142;;;;
2021/05/30 02:03:12;;;;;;;0.5;0.5;;;;;;;9.12;79.20703;944.3181;;;;
2021/05/30 02:05:39;;;;;;;1;0.6;;;;;;;9.13;78.90137;944.35;;;;
2021/05/30 02:08:04;;;;;;;2.8;0.7;;;;;;;8.82;79.67578;944.3191;;;;
2021/05/30 02:10:30;;;;;;;0.9;0.8;;;;;;;8.66;80.85059;944.3067;;;;
2021/05/30 02:12:57;;;;;;;0.9;0.7;;;;;;;8.69;80.88965;944.2311;;;;
2021/05/30 02:15:26;;;;;;;0.9;0.8;;;;;;;8.73;80.80566;944.298;;;;
2021/05/30 02:17:51;;;;;;;1.4;1;;;;;;;8.78;80.48633;944.2518;;;;
2021/05/30 02:20:17;;;;;;;1;0.9;;;;;;;8.8;80.35254;944.2753;;;;
2021/05/30 02:22:42;;;;;;;2;0.6;;;;;;;8.76;80.38086;944.3053;;;;
2021/05/30 02:25:08;;;;;;;0.5;0.4;;;;;;;8.62;80.75098;944.2698;;;;
2021/05/30 02:27:33;;;;;;;0.5;0.5;;;;;;;8.65;80.55176;944.338;;;;
2021/05/30 02:29:59;;;;;;;0.7;0.5;;;;;;;8.66;80.29199;944.3661;;;;
2021/05/30 02:32:24;;;;;;;1;0.7;;;;;;;8.66;80.28027;944.3408;;;;
2021/05/30 02:34:50;;;;;;;0.5;0.5;;;;;;;8.64;80.29004;944.3617;;;;
2021/05/30 02:37:15;;;;;;;1;0.6;;;;;;;8.65;80.11035;944.358;;;;
2021/05/30 02:39:41;;;;;;;1;0.7;;;;;;;8.5;80.75;944.3488;;;;
2021/05/30 02:42:06;;;;;;;0.5;0.5;;;;;;;8.51;81.03809;944.4063;;;;
2021/05/30 02:44:32;;;;;;;0.6;0.6;;;;;;;8.3;81.42871;944.3856;;;;
2021/05/30 02:50:01;;;;;;;0.6;0.5;;;;;;;8.44;80.30957;944.46;;;;
2021/05/30 02:52:27;;;;;;;0.3;0.3;;;;;;;8.48;80.05566;944.4572;;;;
2021/05/30 02:54:52;;;;;;;2.7;0.5;;;;;;;8.46;79.88184;944.4932;;;;
2021/05/30 02:57:17;;;;;;;0.6;0.5;;;;;;;8.5;79.73926;944.4973;;;;
2021/05/30 02:59:42;;;;;;;0.4;0.3;;;;;;;8.44;79.86523;944.4782;;;;
2021/05/30 03:02:08;;;;;;;1.4;0.4;;;;;;;8.23;80.49707;944.4775;;;;
2021/05/30 03:04:42;;;;;;;1;0.9;;;;;;;8.24;80.43066;944.4579;;;;
2021/05/30 03:07:07;;;;;;;0.4;0.4;;;;;;;8.28;80.37988;944.5033;;;;
2021/05/30 03:09:42;;;;;;;1;0.6;;;;;;;8.21;80.5957;944.5333;;;;
2021/05/30 03:12:08;;;;;;;0.6;0.6;;;;;;;8.09;80.96875;944.5858;;;;
2021/05/30 03:14:56;;;;;;;1.1;0.9;;;;;;;8.05;81.13281;944.4625;;;;
2021/05/30 03:17:21;;;;;;;1;0.8;;;;;;;7.92;81.6084;944.5577;;;;
2021/05/30 03:19:46;;;;;;;0.4;0.4;;;;;;;7.76;82.50781;944.6184;;;;
2021/05/30 03:22:48;;;;;;;1.7;0.6;;;;;;;7.78;82.53418;944.6166;;;;
2021/05/30 03:25:14;;;;;;;0.9;0.5;;;;;;;7.83;82.69141;944.6295;;;;
2021/05/30 03:27:39;;;;;;;0.7;0.6;;;;;;;7.83;82.14746;944.6975;;;;
2021/05/30 03:30:04;;;;;;;0.5;0.5;;;;;;;7.87;82.13086;944.744;;;;
2021/05/30 03:32:29;;;;;;;0.9;0.7;;;;;;;7.89;81.80566;944.7573;;;;
2021/05/30 03:34:54;;;;;;;0.8;0.6;;;;;;;7.88;81.62402;944.7816;;;;
2021/05/30 03:39:45;;;;;;;0.6;0.6;;;;;;;8.02;80.42383;944.7853;;;;
2021/05/30 03:42:09;;;;;;;0.8;0.6;;;;;;;8.02;80.43359;944.7843;;;;
2021/05/30 03:44:34;;;;;;;0.9;0.8;;;;;;;7.98;80.41504;944.8772;;;;
2021/05/30 03:46:59;;;;;;;1.2;0.7;;;;;;;8.04;80.30078;944.8642;;;;
2021/05/30 03:49:25;;;;;;;0.6;0.6;;;;;;;8.06;80.20313;944.884;;;;
2021/05/30 03:51:50;;;;;;;0.6;0.6;;;;;;;8.1;79.68945;944.7589;;;;
2021/05/30 03:54:16;;;;;;;1.1;0.7;;;;;;;8.14;79.61719;944.8134;;;;
2021/05/30 03:56:41;;;;;;;0.8;0.6;;;;;;;8.18;79.6123;944.8398;;;;
2021/05/30 03:59:08;;;;;;;1.5;0.5;;;;;;;8.17;79.29395;944.8524;;;;
2021/05/30 04:02:30;;;;;;;0.5;0.5;;;;;;;8.16;78.94043;944.8575;;;;
2021/05/30 04:04:55;;;;;;;1.1;0.7;;;;;;;8.07;79.27637;944.8502;;;;
2021/05/30 04:07:20;;;;;;;1.4;0.6;;;;;;;7.82;80.19238;944.7939;;;;
2021/05/30 04:12:10;;;;;;;0.4;0.4;;;;;;;7.81;80.84863;944.7461;;;;
2021/05/30 04:14:35;;;;;;;0.8;0.6;;;;;;;7.82;80.93164;944.7719;;;;
2021/05/30 04:17:01;;;;;;;0.8;0.6;;;;;;;7.8;81.11914;944.7597;;;;
2021/05/30 04:19:26;;;;;;;0.7;0.6;;;;;;;7.76;81.23535;944.7625;;;;
2021/05/30 04:21:51;;;;;;;1.1;0.6;;;;;;;7.6;81.74121;944.8042;;;;
2021/05/30 04:24:16;;;;;;;0.5;0.4;;;;;;;7.65;81.94238;944.7625;;;;
2021/05/30 04:26:41;;;;;;;1.5;0.7;;;;;;;7.5;82.41211;944.7781;;;;
2021/05/30 04:29:06;;;;;;;1;0.6;;;;;;;7.46;82.7793;944.7903;;;;
2021/05/30 04:31:32;;;;;;;1.1;0.6;;;;;;;7.46;82.99316;944.7617;;;;
2021/05/30 04:33:57;;;;;;;0.7;0.6;;;;;;;7.42;83.15723;944.7788;;;;
2021/05/30 04:36:22;;;;;;;1.1;0.6;;;;;;;7.62;83.0127;944.7892;;;;
2021/05/30 04:38:47;;;;;;;0.7;0.7;;;;;;;7.72;82.25098;944.7361;;;;
2021/05/30 04:43:53;;;;;;;5.1;1;;;;;;;7.8;81.90332;944.7241;;;;
2021/05/30 04:46:18;;;;;;;2.5;1;;;;;;;7.9;81.6709;944.7495;;;;
2021/05/30 04:48:43;;;;;;;1.2;0.9;;;;;;;8.01;81.04688;944.6962;;;;
2021/05/30 04:51:12;;;;;;;0.8;0.8;;;;;;;8.17;80.58691;944.7037;;;;
2021/05/30 04:55:58;;;;;;;1.4;0.9;;;;;;;8.49;79.52148;944.6819;;;;
2021/05/30 04:58:23;;;;;;;0.6;0.5;;;;;;;8.52;79.49414;944.6781;;;;
2021/05/30 05:00:48;;;;;;;1.6;0.8;;;;;;;8.6;79.59961;944.6722;;;;
2021/05/30 05:03:13;;;;;;;5.5;1;;;;;;;8.7;80.58496;944.6443;;;;
2021/05/30 05:05:39;;;;;;;1.8;0.8;;;;;;;10.32;74.90723;944.6428;;;;
2021/05/30 05:08:04;;;;;;;1.8;0.7;;;;;;;12.23;66.0127;944.5611;;;;
2021/05/30 05:10:29;;;;;;;0.7;0.7;;;;;;;13.97;61.65039;944.5694;;;;
2021/05/30 05:12:54;;;;;;;0.7;0.6;;;;;;;15.18;57.85156;944.5333;;;;
2021/05/30 05:15:23;;;;;;;0.7;0.5;;;;;;;16.73;51.0498;944.4202;;;;
2021/05/30 05:17:48;;;;;;;1;0.5;;;;;;;17.04;48.3623;944.3758;;;;
2021/05/30 05:20:13;;;;;;;0.4;0.4;;;;;;;16.65;51.37695;944.4299;;;;
2021/05/30 05:22:38;;;;;;;0.4;0.4;;;;;;;17.56;50.40332;944.4598;;;;
2021/05/30 05:25:03;;;;;;;0.4;0.3;;;;;;;18.55;44.41211;944.3337;;;;
2021/05/30 05:27:28;;;;;;;0.5;0.4;;;;;;;20.04;41.99414;944.3014;;;;
2021/05/30 05:29:55;;;;;;;0.6;0.3;;;;;;;20.51;41.45605;944.2953;;;;
2021/05/30 05:32:20;;;;;;;0.5;0.3;;;;;;;21.23;39.66309;944.3059;;;;
2021/05/30 05:34:45;;;;;;;0.3;0.2;;;;;;;21.55;39.02441;944.2783;;;;
2021/05/30 05:37:10;;;;;;;0.1;0.1;;;;;;;21.88;38.12695;944.322;;;;
2021/05/30 05:39:37;;;;;;;0.9;0.3;;;;;;;21.63;38.78516;944.3091;;;;
2021/05/30 05:42:02;;;;;;;0.3;0.2;;;;;;;22.1;38.56836;944.309;;;;
2021/05/30 05:44:27;;;;;;;0.2;0.2;;;;;;;21.87;39.30957;944.3636;;;;
2021/05/30 05:46:52;;;;;;;0.6;0.5;;;;;;;20.6;39.67676;944.3413;;;;
2021/05/30 05:49:18;;;;;;;0.3;0.3;;;;;;;18.76;43.88574;944.3834;;;;
2021/05/30 05:51:43;;;;;;;0.2;0.1;;;;;;;16.65;50.73926;944.3502;;;;
2021/05/30 05:54:10;;;;;;;0.7;0.4;;;;;;;16.18;51.80664;944.3412;;;;
2021/05/30 05:56:35;;;;;;;0.7;0.3;;;;;;;15.18;55.33496;944.3776;;;;
2021/05/30 05:59:00;;;;;;;0.4;0.4;;;;;;;14.43;57.21094;944.3857;;;;
2021/05/30 06:01:27;;;;;;;6.9;0.9;;;;;;;13.54;60.62305;944.3273;;;;
2021/05/30 06:03:52;;;;;;;0.4;0.4;;;;;;;12.99;62.64648;944.3716;;;;
2021/05/30 06:06:47;;;;;;;0.6;0.4;;;;;;;12.6;63.54297;944.3325;;;;
2021/05/30 06:09:31;;;;;;;0.7;0.4;;;;;;;12.38;64.29199;944.3169;;;;
2021/05/30 06:11:56;;;;;;;0.8;0.5;;;;;;;11.94;65.62402;944.3035;;;;
2021/05/30 06:14:22;;;;;;;0.9;0.8;;;;;;;11.52;67.15039;944.2709;;;;
2021/05/30 06:16:47;;;;;;;0.7;0.6;;;;;;;11.17;69.58887;944.283;;;;
2021/05/30 06:19:13;;;;;;;0.9;0.7;;;;;;;11.32;69.4873;944.3814;;;;
2021/05/30 06:21:39;;;;;;;0.4;0.4;;;;;;;11.22;70.40918;944.3831;;;;
2021/05/30 06:24:04;;;;;;;0.6;0.6;;;;;;;13.05;65.79199;944.3406;;;;
2021/05/30 06:26:29;;;;;;;0.8;0.6;;;;;;;15.93;56.7373;944.3109;;;;
2021/05/30 06:28:57;;;;;;;0.8;0.6;;;;;;;19.19;47.54004;944.1975;;;;
2021/05/30 06:31:23;;;;;;;0.9;0.5;;;;;;;21.24;43.85254;944.1488;;;;
2021/05/30 06:33:46;;;;;;;0.3;0.3;;;;;;;23.36;35.8916;944.1703;;;;
2021/05/30 06:36:12;;;;;;;0.3;0.3;;;;;;;24.11;34.84473;944.1826;;;;
2021/05/30 06:38:37;;;;;;;0.3;0.3;;;;;;;25.53;32.13281;944.1525;;;;
2021/05/30 06:41:02;;;;;;;0.3;0.3;;;;;;;26.51;30.20215;944.164;;;;
2021/05/30 06:43:27;;;;;;;0.1;0.1;;;;;;;26.93;29.8623;944.1259;;;;
2021/05/30 06:45:52;;;;;;;0.3;0.2;;;;;;;27.49;29.1875;944.1097;;;;
2021/05/30 06:48:20;;;;;;;0.3;0.2;;;;;;;25.08;32.01758;944.2056;;;;
2021/05/30 06:50:44;;;;;;;0.1;0.1;;;;;;;23.27;35.19043;944.1569;;;;
2021/05/30 06:53:09;;;;;;;0.2;0.2;;;;;;;23.1;36.42188;944.1397;;;;
2021/05/30 06:55:34;;;;;;;0.1;0.1;;;;;;;25.28;32.25586;944.1204;;;;
2021/05/30 06:57:59;;;;;;;0.1;0.1;;;;;;;25.95;30.83789;944.1406;;;;
2021/05/30 07:00:46;;;;;;;0.4;0.2;;;;;;;26.37;30.5;944.1445;;;;
2021/05/30 07:06:48;;;;;;;1;0.4;;;;;;;29.03;26.28809;944.1099;;;;
2021/05/30 07:09:13;;;;;;;0.4;0.2;;;;;;;28.46;26.8252;944.0658;;;;
2021/05/30 07:11:38;;;;;;;0.2;0.2;;;;;;;29.25;25.20508;944.0561;;;;
2021/05/30 07:14:04;;;;;;;0.4;0.2;;;;;;;30.08;24.84473;944.0625;;;;
2021/05/30 07:16:29;;;;;;;0.5;0.2;;;;;;;30.27;24.79688;944.0237;;;;
2021/05/30 07:18:56;;;;;;;0.2;0.2;;;;;;;31.46;23.44922;943.9883;;;;
2021/05/30 07:21:40;;;;;;;0.1;0.1;;;;;;;29.81;24.90234;944.0619;;;;
2021/05/30 07:24:05;;;;;;;0.3;0.2;;;;;;;32.19;22.71973;943.9343;;;;
2021/05/30 07:26:30;;;;;;;0.1;0.1;;;;;;;33.64;21.70996;943.9549;;;;
2021/05/30 07:28:55;;;;;;;0.2;0.2;;;;;;;33.72;21.41211;943.9487;;;;
2021/05/30 07:31:20;;;;;;;0.4;0.4;;;;;;;34.71;19.80762;943.8942;;;;
2021/05/30 07:33:46;;;;;;;0.5;0.2;;;;;;;33.22;21.8584;943.8797;;;;
2021/05/30 07:36:11;;;;;;;0.4;0.4;;;;;;;30.34;24.03613;943.954;;;;
2021/05/30 07:38:57;;;;;;;0.2;0.1;;;;;;;27.93;26.81836;943.9485;;;;
2021/05/30 07:41:24;;;;;;;0.6;0.4;;;;;;;25.94;30.25879;943.9231;;;;
2021/05/30 07:43:49;;;;;;;2.6;0.7;;;;;;;23.03;34.6084;943.8718;;;;
2021/05/30 07:46:16;;;;;;;0.4;0.3;;;;;;;21;39.18555;943.9087;;;;
2021/05/30 07:48:41;;;;;;;0.5;0.4;;;;;;;19.41;43.29785;943.937;;;;
2021/05/30 07:51:07;;;;;;;0.3;0.2;;;;;;;19.19;44.81445;943.8939;;;;
2021/05/30 07:53:32;;;;;;;0.4;0.3;;;;;;;20.28;43.65234;943.8363;;;;
2021/05/30 07:56:42;;;;;;;0.4;0.4;;;;;;;20.84;42.36328;943.8635;;;;
2021/05/30 07:59:09;;;;;;;0.2;0.2;;;;;;;23.7;37.23633;943.8042;;;;
2021/05/30 08:01:33;;;;;;;0.6;0.5;;;;;;;22.2;38.21387;943.8514;;;;
2021/05/30 08:03:58;;;;;;;0.6;0.4;;;;;;;20.52;42.44922;943.8292;;;;
2021/05/30 08:06:23;;;;;;;0.4;0.4;;;;;;;21.89;41.38574;943.8287;;;;
2021/05/30 08:08:48;;;;;;;0.4;0.4;;;;;;;24.65;35.60645;943.7727;;;;
2021/05/30 08:11:14;;;;;;;1.3;0.4;;;;;;;24.53;35.31348;943.7155;;;;
2021/05/30 08:13:39;;;;;;;0.7;0.4;;;;;;;24;35.46094;943.7402;;;;
2021/05/30 08:16:04;;;;;;;0.4;0.3;;;;;;;21.69;39.76172;943.7986;;;;
2021/05/30 08:18:30;;;;;;;0.3;0.3;;;;;;;22.91;37.8877;943.6899;;;;
2021/05/30 08:26:46;;;;;;;0.6;0.3;;;;;;;21.96;39.55176;943.7014;;;;
2021/05/30 08:29:11;;;;;;;0.6;0.6;;;;;;;20.16;44.49219;943.6622;;;;
2021/05/30 08:31:36;;;;;;;0.5;0.4;;;;;;;21.86;40.8916;943.6729;;;;
2021/05/30 08:34:03;;;;;;;0.9;0.4;;;;;;;23.77;36.84277;943.6359;;;;
2021/05/30 08:36:28;;;;;;;0.6;0.4;;;;;;;24.9;33.95117;943.6398;;;;
2021/05/30 08:38:54;;;;;;;0.6;0.4;;;;;;;23.29;36.46094;943.6102;;;;
2021/05/30 08:41:19;;;;;;;0.3;0.3;;;;;;;23.44;38.37988;943.6022;;;;
2021/05/30 08:43:46;;;;;;;0.7;0.4;;;;;;;23.05;38.65039;943.6188;;;;
2021/05/30 08:46:11;;;;;;;1.8;0.6;;;;;;;23.32;36.27637;943.6058;;;;
2021/05/30 08:48:37;;;;;;;0.6;0.6;;;;;;;23.15;37.67188;943.5798;;;;
2021/05/30 08:51:03;;;;;;;0.4;0.3;;;;;;;23.56;35.70801;943.6326;;;;
2021/05/30 08:54:05;;;;;;;0.4;0.3;;;;;;;23.19;35.69043;943.6445;;;;
2021/05/30 08:56:50;;;;;;;1.5;0.6;;;;;;;23.08;37.12598;943.678;;;;
2021/05/30 08:59:16;;;;;;;3.4;0.6;;;;;;;23.36;36.64453;943.6696;;;;
2021/05/30 09:01:41;;;;;;;0.3;0.3;;;;;;;23.16;38.54297;943.6342;;;;
2021/05/30 09:04:07;;;;;;;0.9;0.4;;;;;;;23.12;38.32715;943.5809;;;;
2021/05/30 09:06:34;;;;;;;0.8;0.6;;;;;;;24.98;34.04004;943.6172;;;;
2021/05/30 09:08:58;;;;;;;0.8;0.3;;;;;;;26.12;31.86719;943.613;;;;
2021/05/30 09:11:24;;;;;;;0.7;0.6;;;;;;;26;32.34375;943.6349;;;;
2021/05/30 09:13:49;;;;;;;0.3;0.3;;;;;;;25.99;29.78906;943.6248;;;;
2021/05/30 09:16:20;;;;;;;0.3;0.3;;;;;;;24.9;31.82813;943.6235;;;;
2021/05/30 09:18:39;;;;;;;0.4;0.3;;;;;;;23.19;34.46777;943.5916;;;;
2021/05/30 09:21:08;;;;;;;0.1;0.1;;;;;;;21.79;36.64355;943.6395;;;;
2021/05/30 09:23:31;;;;;;;0.3;0.3;;;;;;;20.92;38.94531;943.7079;;;;
2021/05/30 09:25:57;;;;;;;0.4;0.3;;;;;;;21.79;38.38965;943.6688;;;;
2021/05/30 09:28:50;;;;;;;0.7;0.6;;;;;;;22.46;36.72266;943.5883;;;;
2021/05/30 09:31:15;;;;;;;0.8;0.6;;;;;;;23.72;32.69727;943.5742;;;;
2021/05/30 09:33:41;;;;;;;1.2;0.4;;;;;;;24.4;32.95898;943.5643;;;;
2021/05/30 09:36:06;;;;;;;0.6;0.3;;;;;;;25.81;28.99609;943.5153;;;;
2021/05/30 09:38:32;;;;;;;0.6;0.4;;;;;;;26.25;30.43262;943.5589;;;;
2021/05/30 09:40:56;;;;;;;0.9;0.4;;;;;;;26.23;28.66797;943.5416;;;;
2021/05/30 09:43:21;;;;;;;0.2;0.2;;;;;;;25.36;30.71484;943.4925;;;;
2021/05/30 09:45:53;;;;;;;0.6;0.5;;;;;;;24.66;32.57715;943.5148;;;;
2021/05/30 09:48:21;;;;;;;0.6;0.2;;;;;;;24;32.49414;943.5009;;;;
2021/05/30 09:51:02;;;;;;;0.1;0.1;;;;;;;24.71;33.95996;943.4691;;;;
2021/05/30 09:53:09;;;;;;;0.5;0.4;;;;;;;22.96;32.54688;943.4189;;;;
2021/05/30 09:55:36;;;;;;;0.3;0.3;;;;;;;21.92;34.32227;943.5684;;;;
2021/05/30 09:58:01;;;;;;;1.3;0.3;;;;;;;20.83;39.10059;943.5197;;;;
2021/05/30 10:00:27;;;;;;;0.3;0.3;;;;;;;21.24;36.65723;943.5599;;;;
2021/05/30 10:03:33;;;;;;;0.3;0.2;;;;;;;21.43;34.91602;943.538;;;;
2021/05/30 10:05:59;;;;;;;0.2;0.2;;;;;;;20.78;35.95215;943.4856;;;;
2021/05/30 10:08:23;;;;;;;0.3;0.3;;;;;;;20.58;36.81152;943.4556;;;;
2021/05/30 10:10:48;;;;;;;0.3;0.3;;;;;;;19.73;38.99219;943.438;;;;
2021/05/30 10:13:30;;;;;;;0.4;0.2;;;;;;;19.56;41.73926;943.4392;;;;
2021/05/30 10:15:56;;;;;;;0.3;0.3;;;;;;;20.04;37.75977;943.3958;;;;
2021/05/30 10:18:22;;;;;;;0.1;0.1;;;;;;;19.77;39.63672;943.4278;;;;
2021/05/30 10:20:47;;;;;;;0.2;0.2;;;;;;;20.23;39.91113;943.4355;;;;
2021/05/30 10:23:12;;;;;;;2.6;0.4;;;;;;;20.67;37.08789;943.4622;;;;
2021/05/30 10:25:37;;;;;;;0.2;0.2;;;;;;;20.51;38.37207;943.4766;;;;
2021/05/30 10:28:02;;;;;;;0.2;0.2;;;;;;;19.93;37.93652;943.4955;;;;
2021/05/30 10:30:35;;;;;;;2.8;0.6;;;;;;;19.92;38.48438;943.3541;;;;
2021/05/30 10:33:00;;;;;;;0.6;0.3;;;;;;;20.25;36.99512;943.4261;;;;
2021/05/30 10:35:25;;;;;;;0.9;0.4;;;;;;;20.61;37.59766;943.3392;;;;
2021/05/30 10:37:50;;;;;;;0.2;0.2;;;;;;;20.05;37.72559;943.4037;;;;
2021/05/30 10:40:15;;;;;;;0.3;0.3;;;;;;;19.25;38.13379;943.3959;;;;
2021/05/30 10:42:40;;;;;;;0.2;0.2;;;;;;;19.52;40.0918;943.383;;;;
2021/05/30 10:45:06;;;;;;;0.7;0.4;;;;;;;19.92;38.20313;943.3397;;;;
2021/05/30 10:47:31;;;;;;;0.4;0.4;;;;;;;19.99;36.77441;943.365;;;;
2021/05/30 10:49:56;;;;;;;0.7;0.4;;;;;;;19.34;37.37402;943.3201;;;;
2021/05/30 10:52:21;;;;;;;0.9;0.5;;;;;;;19.14;38.93945;943.332;;;;
2021/05/30 10:54:46;;;;;;;0.3;0.3;;;;;;;19.39;36.7832;943.3743;;;;
2021/05/30 10:57:11;;;;;;;1.4;0.9;;;;;;;19.53;38.79883;943.3384;;;;
2021/05/30 10:59:38;;;;;;;0.9;0.8;;;;;;;19.34;38.08398;943.3839;;;;
2021/05/30 11:02:03;;;;;;;0.9;0.7;;;;;;;19.25;38.7168;943.2747;;;;
2021/05/30 11:04:29;;;;;;;1.3;0.6;;;;;;;19.01;38.84766;943.345;;;;
2021/05/30 11:06:53;;;;;;;0.3;0.3;;;;;;;18.76;35.9043;943.2942;;;;
2021/05/30 11:09:18;;;;;;;0.4;0.3;;;;;;;18.84;37.9248;943.3619;;;;
2021/05/30 11:15:21;;;;;;;0.3;0.3;;;;;;;19.18;39.67676;943.3095;;;;
2021/05/30 11:17:46;;;;;;;0.4;0.4;;;;;;;19.45;37.7666;943.3421;;;;
2021/05/30 11:20:11;;;;;;;0.4;0.3;;;;;;;19.82;36.1543;943.2336;;;;
2021/05/30 11:22:37;;;;;;;0.3;0.3;;;;;;;19.91;36.89648;943.2089;;;;
2021/05/30 11:25:02;;;;;;;1.2;0.4;;;;;;;19.44;37.97559;943.2252;;;;
2021/05/30 11:27:27;;;;;;;0.2;0.2;;;;;;;19.03;36.8584;943.1852;;;;
2021/05/30 11:29:52;;;;;;;0.3;0.3;;;;;;;19.38;37.53906;943.2372;;;;
2021/05/30 11:32:35;;;;;;;0.2;0.2;;;;;;;18.92;38.49023;943.1622;;;;
2021/05/30 11:35:00;;;;;;;0.8;0.6;;;;;;;19.39;36.83105;943.1635;;;;
2021/05/30 11:37:25;;;;;;;0.2;0.2;;;;;;;19.79;36.34961;943.1323;;;;
2021/05/30 11:39:50;;;;;;;2.3;0.4;;;;;;;19.44;35.2959;943.1298;;;;
2021/05/30 11:42:15;;;;;;;1;0.3;;;;;;;19.52;36.25879;943.1842;;;;
2021/05/30 11:44:41;;;;;;;1.3;0.4;;;;;;;19.78;39.37012;943.1205;;;;
2021/05/30 11:47:07;;;;;;;0.7;0.4;;;;;;;19.42;38.44043;943.1156;;;;
2021/05/30 11:49:32;;;;;;;0.3;0.3;;;;;;;19.18;39.15234;943.1086;;;;
2021/05/30 11:51:58;;;;;;;0.4;0.3;;;;;;;19.46;37.39551;943.1666;;;;
2021/05/30 11:54:24;;;;;;;0.4;0.3;;;;;;;19.95;36.29297;943.1312;;;;
2021/05/30 11:56:48;;;;;;;1.1;0.4;;;;;;;20.06;35.46191;943.1747;;;;
2021/05/30 11:59:14;;;;;;;0.3;0.3;;;;;;;19.95;37.97363;943.1465;;;;
2021/05/30 12:01:39;;;;;;;1.5;0.4;;;;;;;20.03;36.94141;943.0524;;;;
2021/05/30 12:04:23;;;;;;;0.8;0.5;;;;;;;20.39;35.83887;943.1118;;;;
2021/05/30 12:06:48;;;;;;;0.4;0.4;;;;;;;20.65;34.04883;943.1113;;;;
2021/05/30 12:09:13;;;;;;;0.4;0.3;;;;;;;20.58;34.81445;943.1983;;;;
2021/05/30 12:11:40;;;;;;;0.4;0.2;;;;;;;20.19;37.31641;943.1164;;;;
2021/05/30 12:14:03;;;;;;;0.5;0.3;;;;;;;20.46;35.49512;943.1102;;;;
2021/05/30 12:16:28;;;;;;;0.4;0.3;;;;;;;20.71;34.60254;943.1083;;;;
2021/05/30 12:18:53;;;;;;;0.2;0.2;;;;;;;20.69;33.15137;943.0442;;;;
2021/05/30 12:21:19;;;;;;;0.2;0.2;;;;;;;20.4;33.28223;943.0825;;;;
2021/05/30 12:23:44;;;;;;;1;0.6;;;;;;;20.1;36.64355;942.9735;;;;
2021/05/30 12:26:09;;;;;;;0.5;0.4;;;;;;;19.7;36.77441;942.9601;;;;
2021/05/30 12:28:36;;;;;;;1.5;0.7;;;;;;;20.06;35.00684;942.95;;;;
2021/05/30 12:31:01;;;;;;;0.5;0.3;;;;;;;20.05;35.16992;942.9171;;;;
2021/05/30 12:33:27;;;;;;;0.1;0.1;;;;;;;19.73;37.41797;942.9928;;;;
2021/05/30 12:35:53;;;;;;;0.3;0.2;;;;;;;20.07;37.71387;943.0137;;;;
2021/05/30 12:38:19;;;;;;;0.7;0.4;;;;;;;20.07;34.92578;942.94;;;;
2021/05/30 12:40:43;;;;;;;0.4;0.2;;;;;;;20.45;33.63672;942.8926;;;;
2021/05/30 12:43:09;;;;;;;0.9;0.3;;;;;;;20.18;35.30859;942.9459;;;;
2021/05/30 12:45:34;;;;;;;0.4;0.3;;;;;;;19.83;35.92188;942.8773;;;;
2021/05/30 12:47:58;;;;;;;0.4;0.4;;;;;;;19.87;35.7041;942.9016;;;;
2021/05/30 12:50:24;;;;;;;3.7;0.7;;;;;;;19.91;33.65332;942.9073;;;;
2021/05/30 12:52:50;;;;;;;0.3;0.3;;;;;;;19.96;38.53418;942.9152;;;;
2021/05/30 12:55:16;;;;;;;0.8;0.6;;;;;;;19.79;37.08496;942.8664;;;;
2021/05/30 12:57:41;;;;;;;0.2;0.2;;;;;;;19.68;36.43457;942.8386;;;;
2021/05/30 13:00:06;;;;;;;0.4;0.4;;;;;;;20.02;33.38184;942.9321;;;;
2021/05/30 13:02:32;;;;;;;1;0.4;;;;;;;20.18;35.49512;942.8934;;;;
2021/05/30 13:06:04;;;;;;;0.4;0.3;;;;;;;20.42;33.52832;942.894;;;;
2021/05/30 13:08:30;;;;;;;1;0.6;;;;;;;20.48;36.48828;942.8801;;;;
2021/05/30 13:10:54;;;;;;;0.7;0.4;;;;;;;20.46;32.66797;942.7438;;;;
2021/05/30 13:13:19;;;;;;;0.5;0.3;;;;;;;20.42;37.7793;942.8348;;;;
2021/05/30 13:15:46;;;;;;;0.3;0.2;;;;;;;20.69;32.74316;942.8976;;;;
2021/05/30 13:18:11;;;;;;;0.3;0.3;;;;;;;20.73;33.45898;942.866;;;;
2021/05/30 13:20:40;;;;;;;0.4;0.3;;;;;;;20.22;34.37793;942.647;;;;
2021/05/30 13:23:02;;;;;;;0.4;0.3;;;;;;;20.05;34.11914;942.7966;;;;
2021/05/30 13:25:26;;;;;;;0.6;0.5;;;;;;;20.13;32.26953;942.8184;;;;
2021/05/30 13:27:52;;;;;;;0.7;0.4;;;;;;;19.72;38.15137;942.7385;;;;
2021/05/30 13:30:17;;;;;;;0.4;0.3;;;;;;;19.62;33.87695;942.7693;;;;
2021/05/30 13:32:42;;;;;;;0.4;0.3;;;;;;;18.92;36.53418;942.7659;;;;
2021/05/30 13:35:07;;;;;;;0.5;0.5;;;;;;;19.33;36.73145;942.8027;;;;
2021/05/30 13:37:53;;;;;;;0.3;0.3;;;;;;;19.71;34.64063;942.8105;;;;
2021/05/30 13:40:18;;;;;;;0.4;0.3;;;;;;;19.95;33.77246;942.7919;;;;
2021/05/30 13:42:44;;;;;;;0.4;0.4;;;;;;;19.73;35.85547;942.7729;;;;
2021/05/30 13:45:10;;;;;;;0.8;0.5;;;;;;;19.64;36.01172;942.6381;;;;
2021/05/30 13:47:35;;;;;;;0.3;0.3;;;;;;;19.3;34.98145;942.6223;;;;
2021/05/30 13:50:01;;;;;;;0.6;0.4;;;;;;;19.52;34.00879;942.6494;;;;
2021/05/30 13:52:26;;;;;;;0.6;0.4;;;;;;;19.38;32.85547;942.6403;;;;
2021/05/30 13:54:52;;;;;;;0.5;0.5;;;;;;;19.13;37.57617;942.7162;;;;
2021/05/30 13:57:18;;;;;;;0.6;0.5;;;;;;;19.46;34.42383;942.7045;;;;
2021/05/30 13:59:44;;;;;;;0.3;0.2;;;;;;;19.52;34.82422;942.7084;;;;
2021/05/30 14:02:09;;;;;;;10.3;0.9;;;;;;;19.58;33.82715;942.6672;;;;
2021/05/30 14:04:35;;;;;;;0.3;0.3;;;;;;;19.83;33.51855;942.6576;;;;
2021/05/30 14:07:00;;;;;;;0.2;0.2;;;;;;;19.69;36.19043;942.6017;;;;
2021/05/30 14:09:27;;;;;;;0.3;0.3;;;;;;;19.61;34.83105;942.6303;;;;
2021/05/30 14:11:52;;;;;;;0.5;0.4;;;;;;;19.75;35.04102;942.6353;;;;
2021/05/30 14:14:19;;;;;;;0.6;0.5;;;;;;;19.52;36.98145;942.5541;;;;
2021/05/30 14:16:44;;;;;;;3.5;0.8;;;;;;;19.31;36.01953;942.635;;;;
2021/05/30 14:19:10;;;;;;;0.4;0.4;;;;;;;19.63;35.47363;942.6448;;;;
2021/05/30 14:21:35;;;;;;;2.6;0.9;;;;;;;19.59;34.70215;942.6218;;;;
2021/05/30 14:24:01;;;;;;;0.9;0.4;;;;;;;19.35;36.20898;942.5739;;;;
2021/05/30 14:26:27;;;;;;;0.3;0.2;;;;;;;19.27;35.31738;942.5485;;;;
2021/05/30 14:28:52;;;;;;;1.3;0.4;;;;;;;19.33;37.12793;942.4691;;;;
2021/05/30 14:31:17;;;;;;;0.6;0.4;;;;;;;19.15;34.23633;942.4396;;;;
2021/05/30 14:33:43;;;;;;;0.4;0.3;;;;;;;18.9;35.91602;942.4733;;;;
2021/05/30 14:36:09;;;;;;;0.4;0.4;;;;;;;18.89;34.16895;942.4776;;;;
2021/05/30 14:38:35;;;;;;;2.1;0.6;;;;;;;19.14;34.6084;942.3937;;;;
2021/05/30 14:41:00;;;;;;;1.6;0.6;;;;;;;19.01;37.52051;942.4086;;;;
2021/05/30 14:44:03;;;;;;;0.5;0.5;;;;;;;19.01;35.00586;942.4263;;;;
2021/05/30 14:46:30;;;;;;;1.4;0.9;;;;;;;18.98;36.19043;942.4261;;;;
2021/05/30 14:48:54;;;;;;;0.4;0.3;;;;;;;18.91;34.625;942.4529;;;;
2021/05/30 14:51:19;;;;;;;0.2;0.2;;;;;;;18.81;37.1543;942.4808;;;;
2021/05/30 14:53:44;;;;;;;0.3;0.2;;;;;;;18.9;35.6709;942.4515;;;;